Time;durP1;ratioP1;P1;durP2;ratioP2;P2;SDS_P1;SDS_P2;PMS_P1;PMS_P2;Temp;Humidity;BMP_temperature;BMP_pressure;BME280_temperature;BME280_humidity;BME280_pressure;Samples;Min_cycle;Max_cycle;Signal;HPM_P1;HPM_P2
2021/09/26 00:00:33;;;;;;;;;;;23.70;52.50;;;;;;1512869;78;754;-65
2021/09/26 00:02:35;;;;;;;;;;;23.70;52.60;;;;;;1493481;78;823;-66
2021/09/26 00:04:37;;;;;;;;;;;23.80;52.60;;;;;;1502165;78;804;-69
2021/09/26 00:06:38;;;;;;;;;;;23.70;52.60;;;;;;1501601;78;813;-72
2021/09/26 00:08:40;;;;;;;;;;;23.80;52.60;;;;;;1495954;78;1140;-66
2021/09/26 00:10:42;;;;;;;;;;;23.80;52.60;;;;;;1510054;78;767;-67
2021/09/26 00:12:44;;;;;;;;;;;23.80;52.60;;;;;;1497297;78;640;-68
2021/09/26 00:14:46;;;;;;;;;;;23.90;52.60;;;;;;1498975;78;835;-66
2021/09/26 00:16:48;;;;;;;;;;;23.80;52.60;;;;;;1500354;78;732;-67
2021/09/26 00:18:50;;;;;;;;;;;23.80;52.60;;;;;;1496424;78;1949;-68
2021/09/26 00:20:51;;;;;;;;;;;23.80;52.60;;;;;;1501414;78;817;-73
2021/09/26 00:22:53;;;;;;;;;;;23.90;52.70;;;;;;1496181;78;743;-75
2021/09/26 00:24:55;;;;;;;;;;;23.80;52.50;;;;;;1500072;78;641;-66
2021/09/26 00:26:57;;;;;;;;;;;23.80;52.50;;;;;;1496475;78;824;-67
2021/09/26 00:28:59;;;;;;;;;;;23.80;52.40;;;;;;1493214;78;1169;-65
2021/09/26 00:31:01;;;;;;;;;;;23.70;52.30;;;;;;1498349;78;759;-78
2021/09/26 00:33:03;;;;;;;;;;;23.80;52.20;;;;;;1516519;78;782;-69
2021/09/26 00:35:05;;;;;;;;;;;23.80;52.20;;;;;;1504687;78;672;-69
2021/09/26 00:37:07;;;;;;;;;;;23.80;52.20;;;;;;1499067;78;801;-68
2021/09/26 00:39:09;;;;;;;;;;;23.70;52.20;;;;;;1500280;77;1962;-70
2021/09/26 00:41:10;;;;;;;;;;;23.70;52.20;;;;;;1498449;78;809;-66
2021/09/26 00:43:12;;;;;;;;;;;23.90;52.30;;;;;;1513310;78;754;-66
2021/09/26 00:45:14;;;;;;;;;;;23.70;52.30;;;;;;1502418;78;692;-72
2021/09/26 00:47:16;;;;;;;;;;;23.70;52.30;;;;;;1482249;78;813;-66
2021/09/26 00:49:20;;;;;;;;;;;23.80;52.30;;;;;;1566003;73;2041;-70
2021/09/26 00:51:22;;;;;;;;;;;23.80;52.20;;;;;;1598907;74;803;-72
2021/09/26 00:53:23;;;;;;;;;;;23.80;52.20;;;;;;1603690;74;690;-72
2021/09/26 00:55:25;;;;;;;;;;;23.80;52.30;;;;;;1606001;74;833;-71
2021/09/26 00:57:27;;;;;;;;;;;23.90;52.40;;;;;;1602674;74;737;-71
2021/09/26 00:59:29;;;;;;;;;;;23.80;52.30;;;;;;1599137;73;1970;-71
2021/09/26 01:01:31;;;;;;;;;;;23.80;52.40;;;;;;1604427;73;733;-73
2021/09/26 01:03:33;;;;;;;;;;;23.80;52.40;;;;;;1608335;74;677;-71
2021/09/26 01:05:35;;;;;;;;;;;23.80;52.50;;;;;;1604256;73;747;-71
2021/09/26 01:07:55;;;;;;;;;;;23.80;52.40;;;;;;1598537;74;718;-72
2021/09/26 01:10:05;;;;;;;;;;;23.80;52.40;;;;;;1585784;74;1073;-72
2021/09/26 01:12:14;;;;;;;;;;;23.90;52.50;;;;;;1596559;74;963;-71
2021/09/26 01:14:24;;;;;;;;;;;23.80;52.40;;;;;;1585317;74;745;-70
2021/09/26 01:16:30;;;;;;;;;;;23.80;52.40;;;;;;1574533;74;1017;-69
2021/09/26 01:18:46;;;;;;;;;;;23.80;52.30;;;;;;1600814;73;1153;-70
2021/09/26 01:20:57;;;;;;;;;;;23.70;52.20;;;;;;1587851;73;833;-71
2021/09/26 01:23:07;;;;;;;;;;;23.80;52.30;;;;;;1584431;73;719;-72
2021/09/26 01:25:13;;;;;;;;;;;23.80;52.20;;;;;;1594566;74;735;-70
2021/09/26 01:27:17;;;;;;;;;;;23.80;52.30;;;;;;1533058;73;1023;-70
2021/09/26 01:29:37;;;;;;;;;;;23.80;52.30;;;;;;1596879;73;1173;-71
2021/09/26 01:31:40;;;;;;;;;;;23.70;52.20;;;;;;1584856;73;706;-71
2021/09/26 01:33:43;;;;;;;;;;;23.80;52.10;;;;;;1590077;74;814;-70
2021/09/26 01:36:01;;;;;;;;;;;23.80;52.10;;;;;;1605413;73;726;-70
2021/09/26 01:38:07;;;;;;;;;;;23.80;52.20;;;;;;1586555;73;722;-71
2021/09/26 01:40:11;;;;;;;;;;;23.80;52.20;;;;;;1598702;73;1933;-70
2021/09/26 01:42:17;;;;;;;;;;;23.80;52.20;;;;;;1604269;73;679;-71
2021/09/26 01:44:21;;;;;;;;;;;23.70;52.20;;;;;;1583423;74;1012;-72
2021/09/26 01:46:24;;;;;;;;;;;23.70;52.10;;;;;;1573505;73;722;-71
2021/09/26 01:48:31;;;;;;;;;;;23.80;52.10;;;;;;1605095;72;1129;-69
2021/09/26 01:50:33;;;;;;;;;;;23.80;52.10;;;;;;1585318;73;988;-69
2021/09/26 01:52:35;;;;;;;;;;;23.70;52.20;;;;;;1603944;73;718;-68
2021/09/26 01:54:37;;;;;;;;;;;23.80;52.10;;;;;;1608237;73;741;-70
2021/09/26 01:56:40;;;;;;;;;;;23.80;52.10;;;;;;1588104;73;732;-70
2021/09/26 01:58:43;;;;;;;;;;;23.80;52.10;;;;;;1600031;73;1167;-71
2021/09/26 02:00:45;;;;;;;;;;;23.80;52.10;;;;;;1594710;73;1921;-70
2021/09/26 02:02:50;;;;;;;;;;;23.70;52.10;;;;;;1599962;73;729;-71
2021/09/26 02:04:53;;;;;;;;;;;23.90;52.10;;;;;;1600333;73;956;-75
2021/09/26 02:06:54;;;;;;;;;;;23.80;52.10;;;;;;1597128;73;731;-72
2021/09/26 02:08:56;;;;;;;;;;;23.80;52.10;;;;;;1600626;73;1134;-72
2021/09/26 02:10:58;;;;;;;;;;;23.80;52.10;;;;;;1594811;74;730;-74
2021/09/26 02:13:00;;;;;;;;;;;23.80;52.10;;;;;;1598681;74;701;-79
2021/09/26 02:15:03;;;;;;;;;;;23.90;52.20;;;;;;1595812;73;647;-71
2021/09/26 02:17:05;;;;;;;;;;;23.80;52.10;;;;;;1595448;73;768;-74
2021/09/26 02:19:07;;;;;;;;;;;23.70;52.00;;;;;;1595355;73;1949;-75
2021/09/26 02:21:09;;;;;;;;;;;23.70;52.10;;;;;;1601583;73;735;-79
2021/09/26 02:23:10;;;;;;;;;;;23.70;52.10;;;;;;1600992;73;721;-73
2021/09/26 02:25:12;;;;;;;;;;;23.70;52.10;;;;;;1598459;74;703;-73
2021/09/26 02:27:14;;;;;;;;;;;23.70;52.20;;;;;;1600951;73;760;-74
2021/09/26 02:29:16;;;;;;;;;;;23.70;52.20;;;;;;1595995;73;1123;-71
2021/09/26 02:31:18;;;;;;;;;;;23.70;52.30;;;;;;1593844;74;713;-72
2021/09/26 02:33:20;;;;;;;;;;;23.70;52.30;;;;;;1592301;73;751;-72
2021/09/26 02:35:22;;;;;;;;;;;23.70;52.30;;;;;;1593968;74;720;-74
2021/09/26 02:37:24;;;;;;;;;;;23.80;52.30;;;;;;1596051;73;672;-68
2021/09/26 02:39:25;;;;;;;;;;;23.80;52.30;;;;;;1599601;73;1950;-73
2021/09/26 02:41:46;;;;;;;;;;;23.70;52.30;;;;;;1599909;73;713;-71
2021/09/26 02:43:58;;;;;;;;;;;23.70;52.30;;;;;;1591652;73;858;-68
2021/09/26 02:46:05;;;;;;;;;;;23.80;52.30;;;;;;1597462;73;1836;-69
2021/09/26 02:48:18;;;;;;;;;;;23.80;52.20;;;;;;1600189;73;976;-69
2021/09/26 02:50:20;;;;;;;;;;;23.80;52.20;;;;;;1590190;74;733;-69
2021/09/26 02:52:22;;;;;;;;;;;23.80;52.30;;;;;;1586750;74;745;-70
2021/09/26 02:54:24;;;;;;;;;;;23.70;52.30;;;;;;1586852;74;673;-71
2021/09/26 02:56:26;;;;;;;;;;;23.70;52.30;;;;;;1588093;74;713;-73
2021/09/26 02:58:28;;;;;;;;;;;23.80;52.30;;;;;;1594644;73;1158;-74
2021/09/26 03:00:31;;;;;;;;;;;23.70;52.40;;;;;;1587950;74;1938;-72
2021/09/26 03:02:36;;;;;;;;;;;23.80;52.40;;;;;;1588119;74;1102;-73
2021/09/26 03:04:42;;;;;;;;;;;23.70;52.50;;;;;;1596409;74;784;-71
2021/09/26 03:06:44;;;;;;;;;;;23.80;52.50;;;;;;1594945;74;770;-71
2021/09/26 03:08:46;;;;;;;;;;;23.70;52.40;;;;;;1590560;74;1166;-75
2021/09/26 03:10:48;;;;;;;;;;;23.70;52.30;;;;;;1590832;74;631;-70
2021/09/26 03:12:50;;;;;;;;;;;23.70;52.40;;;;;;1594028;74;739;-72
2021/09/26 03:14:52;;;;;;;;;;;23.80;52.20;;;;;;1576172;74;701;-73
2021/09/26 03:16:54;;;;;;;;;;;23.70;52.10;;;;;;1596081;74;681;-71
2021/09/26 03:18:56;;;;;;;;;;;23.70;52.20;;;;;;1585867;74;1107;-70
2021/09/26 03:20:58;;;;;;;;;;;23.70;52.10;;;;;;1573285;74;1943;-71
2021/09/26 03:22:59;;;;;;;;;;;23.70;52.10;;;;;;1568174;74;704;-71
2021/09/26 03:25:01;;;;;;;;;;;23.70;52.20;;;;;;1580279;74;705;-70
2021/09/26 03:27:08;;;;;;;;;;;23.70;52.20;;;;;;1594001;74;708;-71
2021/09/26 03:29:07;;;;;;;;;;;23.70;52.10;;;;;;1593381;74;1168;-72
2021/09/26 03:31:09;;;;;;;;;;;23.70;52.10;;;;;;1587204;74;717;-73
2021/09/26 03:33:11;;;;;;;;;;;23.70;52.30;;;;;;1575247;74;687;-71
2021/09/26 03:35:13;;;;;;;;;;;23.70;52.30;;;;;;1596327;74;722;-70
2021/09/26 03:37:15;;;;;;;;;;;23.60;52.10;;;;;;1597200;74;730;-77
2021/09/26 03:39:17;;;;;;;;;;;23.70;52.40;;;;;;1588111;74;1135;-73
2021/09/26 03:41:19;;;;;;;;;;;23.70;52.50;;;;;;1589146;74;1926;-73
2021/09/26 03:43:20;;;;;;;;;;;23.70;52.60;;;;;;1598347;74;721;-73
2021/09/26 03:45:22;;;;;;;;;;;23.70;52.60;;;;;;1590014;74;685;-73
2021/09/26 03:47:24;;;;;;;;;;;23.70;52.70;;;;;;1586382;74;825;-75
2021/09/26 03:49:26;;;;;;;;;;;23.70;52.80;;;;;;1564238;74;1134;-75
2021/09/26 03:51:28;;;;;;;;;;;23.60;52.60;;;;;;1587661;74;775;-72
2021/09/26 03:53:30;;;;;;;;;;;23.70;52.80;;;;;;1573140;73;721;-71
2021/09/26 03:55:32;;;;;;;;;;;23.60;52.70;;;;;;1594502;74;663;-73
2021/09/26 03:57:33;;;;;;;;;;;23.70;52.80;;;;;;1584458;74;703;-72
2021/09/26 03:59:35;;;;;;;;;;;23.60;52.80;;;;;;1582538;74;1952;-72
2021/09/26 04:01:38;;;;;;;;;;;23.70;53.00;;;;;;1593406;74;637;-73
2021/09/26 04:03:40;;;;;;;;;;;23.60;52.80;;;;;;1572414;74;754;-72
2021/09/26 04:05:41;;;;;;;;;;;23.70;52.90;;;;;;1589718;74;626;-71
2021/09/26 04:07:43;;;;;;;;;;;23.60;53.00;;;;;;1591516;74;703;-73
2021/09/26 04:09:45;;;;;;;;;;;23.70;53.10;;;;;;1588404;73;1131;-73
2021/09/26 04:11:47;;;;;;;;;;;23.70;53.20;;;;;;1579251;74;732;-70
2021/09/26 04:13:49;;;;;;;;;;;23.70;53.20;;;;;;1589896;74;736;-71
2021/09/26 04:15:51;;;;;;;;;;;23.70;53.40;;;;;;1589402;74;717;-72
2021/09/26 04:17:53;;;;;;;;;;;23.70;53.40;;;;;;1577935;74;571;-73
2021/09/26 04:19:54;;;;;;;;;;;23.60;53.10;;;;;;1577454;73;1946;-75
2021/09/26 04:21:56;;;;;;;;;;;23.70;53.20;;;;;;1589917;74;669;-73
2021/09/26 04:23:58;;;;;;;;;;;23.70;53.20;;;;;;1571019;74;715;-76
2021/09/26 04:26:00;;;;;;;;;;;23.70;53.00;;;;;;1575041;74;730;-72
2021/09/26 04:28:02;;;;;;;;;;;23.70;52.90;;;;;;1588149;74;716;-73
2021/09/26 04:30:05;;;;;;;;;;;23.70;52.80;;;;;;1589200;74;1069;-71
2021/09/26 04:32:07;;;;;;;;;;;23.70;52.90;;;;;;1570737;74;750;-75
2021/09/26 04:34:08;;;;;;;;;;;23.70;52.80;;;;;;1586681;74;689;-72
2021/09/26 04:36:10;;;;;;;;;;;23.70;52.80;;;;;;1582997;74;697;-72
2021/09/26 04:38:12;;;;;;;;;;;23.70;52.80;;;;;;1588370;74;1160;-72
2021/09/26 04:40:14;;;;;;;;;;;23.80;52.80;;;;;;1590361;74;1942;-70
2021/09/26 04:42:16;;;;;;;;;;;23.80;52.80;;;;;;1588127;74;727;-70
2021/09/26 04:44:18;;;;;;;;;;;23.70;52.70;;;;;;1591301;74;679;-72
2021/09/26 04:46:20;;;;;;;;;;;23.70;52.80;;;;;;1574180;74;717;-73
2021/09/26 04:48:22;;;;;;;;;;;23.70;53.00;;;;;;1569817;74;1143;-75
2021/09/26 04:50:23;;;;;;;;;;;23.70;53.00;;;;;;1591953;74;778;-72
2021/09/26 04:52:25;;;;;;;;;;;23.70;53.10;;;;;;1594335;74;692;-73
2021/09/26 04:54:27;;;;;;;;;;;23.70;53.00;;;;;;1574350;74;706;-74
2021/09/26 04:56:29;;;;;;;;;;;23.70;53.00;;;;;;1594252;74;759;-71
2021/09/26 04:58:31;;;;;;;;;;;23.70;53.10;;;;;;1569833;74;1175;-70
2021/09/26 05:00:33;;;;;;;;;;;23.80;53.10;;;;;;1593147;74;1927;-72
2021/09/26 05:02:35;;;;;;;;;;;23.70;53.10;;;;;;1591234;74;682;-71
2021/09/26 05:04:37;;;;;;;;;;;23.70;52.80;;;;;;1571545;74;710;-72
2021/09/26 05:06:39;;;;;;;;;;;23.70;52.80;;;;;;1588099;74;673;-72
2021/09/26 05:08:41;;;;;;;;;;;23.70;52.70;;;;;;1592303;74;1133;-75
2021/09/26 05:10:43;;;;;;;;;;;23.70;52.60;;;;;;1592045;74;705;-72
2021/09/26 05:12:45;;;;;;;;;;;23.70;52.60;;;;;;1580590;74;729;-75
2021/09/26 05:14:48;;;;;;;;;;;23.70;52.60;;;;;;1589432;74;743;-71
2021/09/26 05:16:50;;;;;;;;;;;23.70;52.60;;;;;;1593943;74;796;-72
2021/09/26 05:18:52;;;;;;;;;;;23.60;52.40;;;;;;1596778;73;1142;-73
2021/09/26 05:20:54;;;;;;;;;;;23.60;52.40;;;;;;1597082;74;1929;-72
2021/09/26 05:22:56;;;;;;;;;;;23.60;52.40;;;;;;1587600;74;725;-73
2021/09/26 05:24:58;;;;;;;;;;;23.60;52.40;;;;;;1593307;74;737;-71
2021/09/26 05:27:00;;;;;;;;;;;23.60;52.40;;;;;;1593962;74;732;-71
2021/09/26 05:29:03;;;;;;;;;;;23.70;52.60;;;;;;1597364;73;1138;-71
2021/09/26 05:31:05;;;;;;;;;;;23.60;52.40;;;;;;1591385;74;693;-70
2021/09/26 05:33:07;;;;;;;;;;;23.60;52.40;;;;;;1591754;74;751;-74
2021/09/26 05:35:09;;;;;;;;;;;23.60;52.40;;;;;;1571101;74;594;-74
2021/09/26 05:37:11;;;;;;;;;;;23.60;52.40;;;;;;1593781;74;678;-73
2021/09/26 05:39:13;;;;;;;;;;;23.60;52.40;;;;;;1592924;73;1177;-72
2021/09/26 05:41:15;;;;;;;;;;;23.60;52.60;;;;;;1586347;74;1927;-77
2021/09/26 05:43:17;;;;;;;;;;;23.70;52.90;;;;;;1591100;74;666;-68
2021/09/26 05:45:19;;;;;;;;;;;23.70;53.10;;;;;;1570550;74;633;-71
2021/09/26 05:47:21;;;;;;;;;;;23.60;53.00;;;;;;1590112;74;697;-72
2021/09/26 05:49:22;;;;;;;;;;;23.60;53.10;;;;;;1593060;74;1170;-71
2021/09/26 05:51:24;;;;;;;;;;;23.70;53.10;;;;;;1589124;74;787;-72
2021/09/26 05:53:27;;;;;;;;;;;23.60;53.20;;;;;;1590316;74;616;-74
2021/09/26 05:55:29;;;;;;;;;;;23.60;53.00;;;;;;1593247;74;588;-72
2021/09/26 05:57:30;;;;;;;;;;;23.70;53.00;;;;;;1595796;74;668;-72
2021/09/26 05:59:37;;;;;;;;;;;23.60;52.80;;;;;;1594159;74;1158;-71
2021/09/26 06:01:36;;;;;;;;;;;23.70;53.00;;;;;;1587130;74;1901;-75
2021/09/26 06:03:38;;;;;;;;;;;23.60;53.00;;;;;;1589557;74;745;-70
2021/09/26 06:05:44;;;;;;;;;;;23.70;53.10;;;;;;1582388;74;794;-74
2021/09/26 06:07:45;;;;;;;;;;;23.70;53.10;;;;;;1578779;74;721;-75
2021/09/26 06:09:47;;;;;;;;;;;23.70;52.90;;;;;;1584595;73;1170;-75
2021/09/26 06:11:49;;;;;;;;;;;23.70;52.80;;;;;;1590194;74;604;-75
2021/09/26 06:13:51;;;;;;;;;;;23.60;52.60;;;;;;1588414;74;673;-70
2021/09/26 06:15:53;;;;;;;;;;;23.70;52.60;;;;;;1587339;74;720;-75
2021/09/26 06:17:55;;;;;;;;;;;23.60;52.60;;;;;;1591226;74;643;-73
2021/09/26 06:19:57;;;;;;;;;;;23.60;52.40;;;;;;1582511;74;1081;-72
2021/09/26 06:21:58;;;;;;;;;;;23.60;52.60;;;;;;1592157;74;1935;-72
2021/09/26 06:24:00;;;;;;;;;;;23.70;52.80;;;;;;1573110;74;713;-72
2021/09/26 06:26:02;;;;;;;;;;;23.70;52.60;;;;;;1591254;74;732;-71
2021/09/26 06:28:04;;;;;;;;;;;23.60;52.40;;;;;;1569435;74;677;-72
2021/09/26 06:30:07;;;;;;;;;;;23.60;52.40;;;;;;1590472;74;1150;-72
2021/09/26 06:32:08;;;;;;;;;;;23.60;52.30;;;;;;1588744;74;734;-72
2021/09/26 06:34:10;;;;;;;;;;;23.60;52.30;;;;;;1589099;74;668;-71
2021/09/26 06:36:12;;;;;;;;;;;23.60;52.20;;;;;;1586894;74;658;-73
2021/09/26 06:38:14;;;;;;;;;;;23.60;52.20;;;;;;1599415;73;1140;-72
2021/09/26 06:40:16;;;;;;;;;;;23.60;52.20;;;;;;1579742;74;706;-70
2021/09/26 06:42:18;;;;;;;;;;;23.50;52.20;;;;;;1590685;74;1937;-72
2021/09/26 06:44:20;;;;;;;;;;;23.50;52.20;;;;;;1587565;74;732;-73
2021/09/26 06:46:22;;;;;;;;;;;23.60;52.20;;;;;;1582130;74;710;-72
2021/09/26 06:50:49;;;;;;;;;;;23.60;52.20;;;;;;1558111;76;734;-66
2021/09/26 06:52:50;;;;;;;;;;;23.50;52.20;;;;;;1556258;76;1588;-66
2021/09/26 06:54:52;;;;;;;;;;;23.50;52.10;;;;;;1553834;76;887;-67
2021/09/26 06:56:54;;;;;;;;;;;23.50;52.10;;;;;;1556155;76;743;-68
2021/09/26 06:58:56;;;;;;;;;;;23.40;51.90;;;;;;1557683;76;1204;-69
2021/09/26 07:00:58;;;;;;;;;;;23.50;52.00;;;;;;1553686;76;1947;-70
2021/09/26 07:02:59;;;;;;;;;;;23.50;52.00;;;;;;1549732;76;738;-66
2021/09/26 07:05:01;;;;;;;;;;;23.40;51.80;;;;;;1553897;76;780;-66
2021/09/26 07:07:03;;;;;;;;;;;23.40;51.80;;;;;;1553723;76;704;-67
2021/09/26 07:09:05;;;;;;;;;;;23.30;51.80;;;;;;1546020;76;1182;-66
2021/09/26 07:11:07;;;;;;;;;;;23.40;51.80;;;;;;1521909;77;711;-67
2021/09/26 07:13:09;;;;;;;;;;;23.50;51.90;;;;;;1534406;77;678;-67
2021/09/26 07:15:11;;;;;;;;;;;23.40;51.70;;;;;;1512231;77;767;-69
2021/09/26 07:17:13;;;;;;;;;;;23.40;51.70;;;;;;1513075;77;842;-73
2021/09/26 07:19:15;;;;;;;;;;;23.40;51.70;;;;;;1521526;77;1132;-69
2021/09/26 07:21:17;;;;;;;;;;;23.30;51.70;;;;;;1525690;77;1918;-69
2021/09/26 07:23:19;;;;;;;;;;;23.40;51.70;;;;;;1522790;77;761;-68
2021/09/26 07:25:21;;;;;;;;;;;23.30;51.80;;;;;;1517548;77;798;-70
2021/09/26 07:27:23;;;;;;;;;;;23.40;51.80;;;;;;1522043;77;790;-66
2021/09/26 07:29:25;;;;;;;;;;;23.30;51.80;;;;;;1513288;78;1167;-66
2021/09/26 07:31:27;;;;;;;;;;;23.40;51.80;;;;;;1519561;78;813;-63
2021/09/26 07:33:29;;;;;;;;;;;23.40;51.80;;;;;;1523017;78;765;-67
2021/09/26 07:35:31;;;;;;;;;;;23.40;51.80;;;;;;1523950;78;816;-67
2021/09/26 07:37:33;;;;;;;;;;;23.30;51.80;;;;;;1523886;78;806;-67
2021/09/26 07:39:35;;;;;;;;;;;23.40;51.80;;;;;;1515766;78;1184;-66
2021/09/26 07:41:37;;;;;;;;;;;23.40;51.80;;;;;;1522546;78;1928;-67
2021/09/26 07:43:38;;;;;;;;;;;23.40;51.80;;;;;;1523376;76;680;-68
2021/09/26 07:45:40;;;;;;;;;;;23.40;51.80;;;;;;1519472;76;754;-70
2021/09/26 07:47:42;;;;;;;;;;;23.40;51.80;;;;;;1520657;78;743;-67
2021/09/26 07:49:44;;;;;;;;;;;23.50;51.90;;;;;;1519081;78;1142;-66
2021/09/26 07:51:46;;;;;;;;;;;23.40;51.70;;;;;;1521895;78;712;-70
2021/09/26 07:53:48;;;;;;;;;;;23.40;51.70;;;;;;1515939;76;717;-67
2021/09/26 07:55:51;;;;;;;;;;;23.40;51.70;;;;;;1516183;76;721;-67
2021/09/26 07:57:53;;;;;;;;;;;23.50;51.80;;;;;;1513021;76;726;-69
2021/09/26 07:59:55;;;;;;;;;;;23.50;51.80;;;;;;1522534;76;1186;-68
2021/09/26 08:01:56;;;;;;;;;;;23.40;51.70;;;;;;1517178;76;1932;-68
2021/09/26 08:03:58;;;;;;;;;;;23.50;51.80;;;;;;1510613;78;779;-64
2021/09/26 08:06:00;;;;;;;;;;;23.50;51.80;;;;;;1538151;77;795;-67
2021/09/26 08:08:02;;;;;;;;;;;23.50;51.70;;;;;;1539139;77;684;-73
2021/09/26 08:10:05;;;;;;;;;;;23.50;51.70;;;;;;1534551;76;1151;-73
2021/09/26 08:12:07;;;;;;;;;;;23.50;51.70;;;;;;1535176;76;750;-67
2021/09/26 08:14:09;;;;;;;;;;;23.50;51.70;;;;;;1550725;76;896;-65
2021/09/26 08:16:11;;;;;;;;;;;23.50;51.70;;;;;;1546050;76;782;-69
2021/09/26 08:18:13;;;;;;;;;;;23.50;51.70;;;;;;1544756;76;805;-68
2021/09/26 08:20:16;;;;;;;;;;;23.50;51.70;;;;;;1537822;76;1106;-73
2021/09/26 08:22:18;;;;;;;;;;;23.50;51.70;;;;;;1517254;76;1919;-66
2021/09/26 08:24:20;;;;;;;;;;;23.50;51.60;;;;;;1549600;76;748;-67
2021/09/26 08:26:23;;;;;;;;;;;23.60;51.60;;;;;;1546119;76;793;-71
2021/09/26 08:28:25;;;;;;;;;;;23.50;51.60;;;;;;1513192;77;744;-66
2021/09/26 08:30:27;;;;;;;;;;;23.50;51.60;;;;;;1538593;76;1146;-66
2021/09/26 08:32:28;;;;;;;;;;;23.60;51.50;;;;;;1531408;76;722;-67
2021/09/26 08:34:30;;;;;;;;;;;23.60;51.90;;;;;;1564483;76;726;-67
2021/09/26 08:36:32;;;;;;;;;;;23.70;52.10;;;;;;1553306;76;824;-67
2021/09/26 08:38:34;;;;;;;;;;;23.70;52.20;;;;;;1545045;76;1171;-70
2021/09/26 08:40:36;;;;;;;;;;;23.70;51.90;;;;;;1550608;75;682;-66
2021/09/26 08:42:38;;;;;;;;;;;23.80;51.90;;;;;;1548518;76;1931;-67
2021/09/26 08:44:40;;;;;;;;;;;23.70;51.80;;;;;;1547561;75;742;-71
2021/09/26 08:46:42;;;;;;;;;;;23.80;51.80;;;;;;1546784;76;731;-66
2021/09/26 08:48:44;;;;;;;;;;;23.80;51.80;;;;;;1546779;76;1160;-67
2021/09/26 08:50:46;;;;;;;;;;;23.80;51.80;;;;;;1536392;76;771;-66
2021/09/26 08:52:48;;;;;;;;;;;23.70;51.90;;;;;;1541054;75;821;-66
2021/09/26 08:54:50;;;;;;;;;;;23.80;51.90;;;;;;1546924;76;713;-67
2021/09/26 08:56:52;;;;;;;;;;;23.90;51.80;;;;;;1543085;76;729;-67
2021/09/26 08:58:53;;;;;;;;;;;23.90;51.80;;;;;;1531001;76;1144;-67
2021/09/26 09:00:55;;;;;;;;;;;24.00;51.70;;;;;;1511168;77;804;-70
2021/09/26 09:02:58;;;;;;;;;;;24.00;51.50;;;;;;1517210;77;1902;-70
2021/09/26 09:05:00;;;;;;;;;;;24.00;51.40;;;;;;1505492;77;790;-67
2021/09/26 09:07:03;;;;;;;;;;;24.10;51.30;;;;;;1519101;77;867;-68
2021/09/26 09:09:08;;;;;;;;;;;24.10;51.10;;;;;;1518348;77;1158;-67
2021/09/26 09:11:10;;;;;;;;;;;24.10;51.30;;;;;;1513214;77;765;-69
2021/09/26 09:13:13;;;;;;;;;;;24.00;50.90;;;;;;1519406;77;741;-71
2021/09/26 09:15:15;;;;;;;;;;;24.20;50.90;;;;;;1524734;77;763;-65
2021/09/26 09:17:27;;;;;;;;;;;24.20;50.70;;;;;;1526452;77;750;-69
2021/09/26 09:19:29;;;;;;;;;;;24.20;50.80;;;;;;1522109;77;1166;-69
2021/09/26 09:21:31;;;;;;;;;;;24.20;50.70;;;;;;1531529;76;799;-69
2021/09/26 09:23:33;;;;;;;;;;;24.20;50.70;;;;;;1527323;76;656;-68
2021/09/26 09:25:40;;;;;;;;;;;24.20;50.80;;;;;;1504107;77;724;-68
2021/09/26 09:27:42;;;;;;;;;;;24.20;50.90;;;;;;1497832;77;872;-70
2021/09/26 09:29:43;;;;;;;;;;;24.00;50.20;;;;;;1504360;77;1133;-70
2021/09/26 09:31:49;;;;;;;;;;;24.00;50.80;;;;;;1503104;77;667;-66
2021/09/26 09:33:51;;;;;;;;;;;24.00;51.10;;;;;;1500320;77;727;-69
2021/09/26 09:35:53;;;;;;;;;;;24.00;51.20;;;;;;1517995;77;779;-69
2021/09/26 09:37:56;;;;;;;;;;;24.10;51.10;;;;;;1518368;77;735;-70
2021/09/26 09:40:08;;;;;;;;;;;24.20;50.90;;;;;;1544380;76;1121;-68
2021/09/26 09:42:20;;;;;;;;;;;24.20;50.80;;;;;;1544996;76;1951;-68
2021/09/26 09:44:22;;;;;;;;;;;24.30;50.80;;;;;;1547730;76;764;-68
2021/09/26 09:46:34;;;;;;;;;;;24.30;50.90;;;;;;1515656;77;1196;-69
2021/09/26 09:48:36;;;;;;;;;;;24.30;50.90;;;;;;1554347;76;1110;-68
2021/09/26 09:50:45;;;;;;;;;;;24.30;50.80;;;;;;1557459;76;758;-71
2021/09/26 09:52:53;;;;;;;;;;;24.30;50.70;;;;;;1547751;76;734;-68
2021/09/26 09:54:51;;;;;;;;;;;24.30;50.60;;;;;;1553175;75;1724;-68
2021/09/26 09:56:53;;;;;;;;;;;24.30;50.40;;;;;;1541469;76;759;-68
2021/09/26 09:58:55;;;;;;;;;;;24.40;50.40;;;;;;1548109;76;1158;-70
2021/09/26 10:00:57;;;;;;;;;;;24.30;50.60;;;;;;1550419;76;786;-68
2021/09/26 10:02:59;;;;;;;;;;;24.20;50.50;;;;;;1545335;76;1944;-69
2021/09/26 10:05:03;;;;;;;;;;;24.40;50.40;;;;;;1549044;76;803;-69
2021/09/26 10:07:18;;;;;;;;;;;24.30;50.50;;;;;;1544659;76;1994;-68
2021/09/26 10:09:29;;;;;;;;;;;24.30;50.40;;;;;;1544874;76;1139;-69
2021/09/26 10:11:31;;;;;;;;;;;24.30;50.30;;;;;;1525837;76;719;-68
2021/09/26 10:13:32;;;;;;;;;;;24.30;50.40;;;;;;1546000;76;812;-67
2021/09/26 10:15:34;;;;;;;;;;;24.30;50.30;;;;;;1522038;78;958;-68
2021/09/26 10:17:36;;;;;;;;;;;24.30;50.30;;;;;;1515333;76;714;-68
2021/09/26 10:19:38;;;;;;;;;;;24.40;50.20;;;;;;1513445;77;1144;-68
2021/09/26 10:21:40;;;;;;;;;;;24.30;50.20;;;;;;1515560;77;817;-72
2021/09/26 10:23:43;;;;;;;;;;;24.30;50.20;;;;;;1518977;77;1934;-70
2021/09/26 10:25:45;;;;;;;;;;;24.30;50.20;;;;;;1534165;76;739;-69
2021/09/26 10:27:47;;;;;;;;;;;24.30;50.40;;;;;;1515533;77;1066;-68
2021/09/26 10:29:49;;;;;;;;;;;24.40;50.20;;;;;;1509406;77;1168;-70
2021/09/26 10:31:51;;;;;;;;;;;24.40;49.90;;;;;;1516393;77;828;-71
2021/09/26 10:33:53;;;;;;;;;;;24.50;49.80;;;;;;1536791;76;759;-70
2021/09/26 10:35:56;;;;;;;;;;;24.50;49.70;;;;;;1528781;77;801;-72
2021/09/26 10:37:57;;;;;;;;;;;24.50;49.60;;;;;;1508229;77;701;-70
2021/09/26 10:39:59;;;;;;;;;;;24.40;49.60;;;;;;1510005;77;1154;-70
2021/09/26 10:42:05;;;;;;;;;;;24.40;49.70;;;;;;1529168;76;1937;-71
2021/09/26 10:44:26;;;;;;;;;;;24.40;49.90;;;;;;1530792;77;723;-71
2021/09/26 10:46:28;;;;;;;;;;;24.40;49.80;;;;;;1553818;76;811;-67
2021/09/26 10:48:49;;;;;;;;;;;24.40;49.60;;;;;;1548667;76;1165;-70
2021/09/26 10:50:51;;;;;;;;;;;24.30;49.80;;;;;;1558107;76;833;-71
2021/09/26 10:52:53;;;;;;;;;;;24.30;49.90;;;;;;1536510;76;892;-67
2021/09/26 10:54:55;;;;;;;;;;;24.40;49.80;;;;;;1485652;78;1229;-68
2021/09/26 10:57:07;;;;;;;;;;;24.30;49.90;;;;;;1510778;77;797;-68
2021/09/26 10:59:09;;;;;;;;;;;24.30;49.90;;;;;;1516407;77;1100;-68
2021/09/26 11:01:11;;;;;;;;;;;24.40;50.00;;;;;;1534964;76;734;-68
2021/09/26 11:03:14;;;;;;;;;;;24.50;50.00;;;;;;1534926;76;1929;-68
2021/09/26 11:05:29;;;;;;;;;;;24.50;49.40;;;;;;1543793;76;691;-67
2021/09/26 11:07:31;;;;;;;;;;;24.50;49.30;;;;;;1548671;76;711;-69
2021/09/26 11:09:35;;;;;;;;;;;24.40;49.40;;;;;;1560039;76;1093;-70
2021/09/26 11:11:38;;;;;;;;;;;24.40;49.40;;;;;;1551229;76;1940;-68
2021/09/26 11:13:40;;;;;;;;;;;24.40;49.30;;;;;;1554033;76;719;-68
2021/09/26 11:16:00;;;;;;;;;;;24.50;49.50;;;;;;1541556;76;762;-69
2021/09/26 11:18:02;;;;;;;;;;;24.40;49.40;;;;;;1551641;76;779;-68
2021/09/26 11:20:04;;;;;;;;;;;24.40;49.30;;;;;;1557075;76;1149;-68
2021/09/26 11:22:07;;;;;;;;;;;24.50;49.20;;;;;;1551237;76;682;-69
2021/09/26 11:24:10;;;;;;;;;;;24.50;49.20;;;;;;1556363;76;1975;-68
2021/09/26 11:26:12;;;;;;;;;;;24.40;49.20;;;;;;1555335;76;869;-69
2021/09/26 11:28:25;;;;;;;;;;;24.40;49.20;;;;;;1554550;76;749;-71
2021/09/26 11:30:26;;;;;;;;;;;24.40;49.00;;;;;;1520644;77;1144;-68
2021/09/26 11:32:30;;;;;;;;;;;24.40;49.00;;;;;;1515201;77;805;-72
2021/09/26 11:34:35;;;;;;;;;;;24.40;49.20;;;;;;1520016;77;1536;-68
2021/09/26 11:36:37;;;;;;;;;;;24.40;49.20;;;;;;1521081;78;882;-69
2021/09/26 11:38:41;;;;;;;;;;;24.40;49.10;;;;;;1523257;77;1126;-69
2021/09/26 11:40:47;;;;;;;;;;;24.50;49.00;;;;;;1551193;75;1640;-68
2021/09/26 11:42:52;;;;;;;;;;;24.40;49.00;;;;;;1531110;75;1938;-71
2021/09/26 11:44:55;;;;;;;;;;;24.40;48.90;;;;;;1513056;77;1112;-68
2021/09/26 11:46:57;;;;;;;;;;;24.40;48.80;;;;;;1544798;75;723;-73
2021/09/26 11:49:06;;;;;;;;;;;24.30;48.90;;;;;;1512959;77;1165;-70
2021/09/26 11:51:09;;;;;;;;;;;24.30;48.90;;;;;;1514184;77;786;-69
2021/09/26 11:53:13;;;;;;;;;;;24.40;48.90;;;;;;1516694;77;796;-69
2021/09/26 11:55:16;;;;;;;;;;;24.40;48.90;;;;;;1516379;77;1638;-68
2021/09/26 11:57:22;;;;;;;;;;;24.40;49.00;;;;;;1516192;77;1701;-71
2021/09/26 11:59:24;;;;;;;;;;;24.30;49.00;;;;;;1542579;75;1169;-71
2021/09/26 12:01:29;;;;;;;;;;;24.30;49.00;;;;;;1552752;75;725;-68
2021/09/26 12:03:33;;;;;;;;;;;24.30;49.10;;;;;;1544017;76;1928;-68
2021/09/26 12:05:36;;;;;;;;;;;24.30;49.10;;;;;;1542035;76;781;-69
2021/09/26 12:07:38;;;;;;;;;;;24.30;49.20;;;;;;1545039;76;757;-68
2021/09/26 12:09:40;;;;;;;;;;;24.30;49.20;;;;;;1539142;76;1132;-68
2021/09/26 12:11:46;;;;;;;;;;;24.30;49.20;;;;;;1536408;76;718;-68
2021/09/26 12:13:52;;;;;;;;;;;24.30;49.00;;;;;;1546608;76;801;-68
2021/09/26 12:15:54;;;;;;;;;;;24.30;48.90;;;;;;1536665;76;783;-68